Time;durP1;ratioP1;P1;durP2;ratioP2;P2;SDS_P1;SDS_P2;PMS_P1;PMS_P2;Temp;Humidity;BMP_temperature;BMP_pressure;BME280_temperature;BME280_humidity;BME280_pressure;Samples;Min_cycle;Max_cycle;Signal;HPM_P1;HPM_P2
2020/12/29 00:00:07;;;;;;;133.38;88.40;;;;;;;;;;5061987;28;20440;-80
2020/12/29 00:02:33;;;;;;;60.78;41.20;;;;;;;;;;5045086;28;20502;-80
2020/12/29 00:04:59;;;;;;;49.27;40.07;;;;;;;;;;5044137;28;20182;-80
2020/12/29 00:07:25;;;;;;;81.57;67.13;;;;;;;;;;5072051;28;20443;-80
2020/12/29 00:09:51;;;;;;;53.38;45.75;;;;;;;;;;5064584;28;20513;-79
2020/12/29 00:12:17;;;;;;;33.05;27.95;;;;;;;;;;5075867;28;20639;-79
2020/12/29 00:14:43;;;;;;;153.13;137.27;;;;;;;;;;5077599;28;20210;-80
2020/12/29 00:17:09;;;;;;;22.95;19.98;;;;;;;;;;5064957;28;20188;-79
2020/12/29 00:19:35;;;;;;;24.63;21.38;;;;;;;;;;5066263;28;20177;-80
2020/12/29 00:22:01;;;;;;;20.20;17.85;;;;;;;;;;5063494;28;20189;-79
2020/12/29 00:24:27;;;;;;;22.35;19.92;;;;;;;;;;5063721;28;20185;-80
2020/12/29 00:26:53;;;;;;;15.10;12.25;;;;;;;;;;5043216;28;20182;-80
2020/12/29 00:29:19;;;;;;;18.20;13.20;;;;;;;;;;5064724;28;20577;-80
2020/12/29 00:31:45;;;;;;;12.52;9.55;;;;;;;;;;5042475;28;20181;-80
2020/12/29 00:34:11;;;;;;;14.75;11.05;;;;;;;;;;5073735;28;20200;-80
2020/12/29 00:36:37;;;;;;;16.33;12.05;;;;;;;;;;5062972;28;20181;-79
2020/12/29 00:39:03;;;;;;;13.10;10.23;;;;;;;;;;5061116;28;20193;-79
2020/12/29 00:41:29;;;;;;;15.10;11.23;;;;;;;;;;5064164;28;20177;-79
2020/12/29 00:43:55;;;;;;;16.45;11.35;;;;;;;;;;5065269;28;20181;-79
2020/12/29 00:46:22;;;;;;;16.52;10.23;;;;;;;;;;5040775;28;20188;-79
2020/12/29 00:48:49;;;;;;;16.17;10.48;;;;;;;;;;5064654;28;20208;-79
2020/12/29 00:51:19;;;;;;;15.52;11.98;;;;;;;;;;5064576;28;20212;-79
2020/12/29 00:53:45;;;;;;;11.00;9.50;;;;;;;;;;5045276;28;20209;-79
2020/12/29 00:56:12;;;;;;;15.93;11.90;;;;;;;;;;5058986;28;20241;-79
2020/12/29 00:58:38;;;;;;;15.48;11.60;;;;;;;;;;5041950;28;20181;-79
2020/12/29 01:01:08;;;;;;;14.40;10.38;;;;;;;;;;5063740;28;20182;-79
2020/12/29 01:03:34;;;;;;;11.93;9.07;;;;;;;;;;5079134;28;20203;-80
2020/12/29 01:06:00;;;;;;;13.20;11.27;;;;;;;;;;5040951;28;20249;-79
2020/12/29 01:08:26;;;;;;;13.30;9.52;;;;;;;;;;5045666;28;20534;-79
2020/12/29 01:10:52;;;;;;;13.68;9.73;;;;;;;;;;5080113;28;20232;-79
2020/12/29 01:13:18;;;;;;;11.82;9.55;;;;;;;;;;5059658;28;20267;-80
2020/12/29 01:15:44;;;;;;;12.55;9.57;;;;;;;;;;5058556;28;20185;-79
2020/12/29 01:18:10;;;;;;;15.05;10.15;;;;;;;;;;5063461;28;20185;-79
2020/12/29 01:20:36;;;;;;;12.27;9.50;;;;;;;;;;5064124;28;20447;-79
2020/12/29 01:23:02;;;;;;;13.68;9.57;;;;;;;;;;5038461;28;20161;-79
2020/12/29 01:25:29;;;;;;;12.68;9.80;;;;;;;;;;5042122;28;20173;-79
2020/12/29 01:27:55;;;;;;;12.93;9.05;;;;;;;;;;5062466;28;20312;-80
2020/12/29 01:30:21;;;;;;;14.10;9.80;;;;;;;;;;5045821;28;20191;-80
2020/12/29 01:32:47;;;;;;;12.68;9.23;;;;;;;;;;5045407;28;20229;-79
2020/12/29 01:35:13;;;;;;;11.73;8.88;;;;;;;;;;5063822;28;20218;-80
2020/12/29 01:37:43;;;;;;;12.65;9.65;;;;;;;;;;5040828;28;20210;-79
2020/12/29 01:40:10;;;;;;;13.27;8.65;;;;;;;;;;5063170;28;20192;-80
2020/12/29 01:42:36;;;;;;;11.68;8.52;;;;;;;;;;5062313;28;20196;-80
2020/12/29 01:45:06;;;;;;;11.65;8.32;;;;;;;;;;5059554;28;20249;-78
2020/12/29 01:47:33;;;;;;;13.38;8.30;;;;;;;;;;5044399;28;20192;-79
2020/12/29 01:49:59;;;;;;;10.52;8.25;;;;;;;;;;5078841;28;20169;-79
2020/12/29 01:52:25;;;;;;;10.27;8.15;;;;;;;;;;5063012;28;20654;-79
2020/12/29 01:54:51;;;;;;;9.40;8.10;;;;;;;;;;5043983;28;20177;-79
2020/12/29 01:57:17;;;;;;;10.90;8.57;;;;;;;;;;5063015;28;20188;-80
2020/12/29 01:59:43;;;;;;;13.93;8.15;;;;;;;;;;5055779;28;20193;-79
2020/12/29 02:02:09;;;;;;;11.48;8.13;;;;;;;;;;5078084;28;20235;-79
2020/12/29 02:04:35;;;;;;;12.90;8.88;;;;;;;;;;5064110;28;20176;-79
2020/12/29 02:07:01;;;;;;;13.68;8.88;;;;;;;;;;5061789;28;20608;-81
2020/12/29 02:09:27;;;;;;;14.73;9.20;;;;;;;;;;5062184;28;20228;-82
2020/12/29 02:11:53;;;;;;;16.63;9.20;;;;;;;;;;5041433;28;20186;-81
2020/12/29 02:14:19;;;;;;;13.40;8.80;;;;;;;;;;5078011;28;20270;-82
2020/12/29 02:16:45;;;;;;;14.48;9.15;;;;;;;;;;5040513;28;20423;-81
2020/12/29 02:19:11;;;;;;;14.73;9.85;;;;;;;;;;5060623;28;20280;-81
2020/12/29 02:21:38;;;;;;;17.02;9.18;;;;;;;;;;5062584;28;20205;-81
2020/12/29 02:24:04;;;;;;;13.48;9.50;;;;;;;;;;5062613;28;20201;-80
2020/12/29 02:26:31;;;;;;;12.35;8.23;;;;;;;;;;5044766;28;20196;-81
2020/12/29 02:29:00;;;;;;;12.98;9.30;;;;;;;;;;5063085;28;20192;-80
2020/12/29 02:31:26;;;;;;;14.10;8.68;;;;;;;;;;5058293;28;20217;-81
2020/12/29 02:33:52;;;;;;;13.60;8.48;;;;;;;;;;5053039;28;20209;-80
2020/12/29 02:36:18;;;;;;;12.00;8.20;;;;;;;;;;5062213;28;20256;-80
2020/12/29 02:38:44;;;;;;;14.18;8.55;;;;;;;;;;5044053;28;20193;-81
2020/12/29 02:41:11;;;;;;;13.10;8.17;;;;;;;;;;5062918;28;20173;-81
2020/12/29 02:43:37;;;;;;;15.05;8.88;;;;;;;;;;5039748;28;20454;-81
2020/12/29 02:46:03;;;;;;;14.65;9.30;;;;;;;;;;5062583;28;20246;-80
2020/12/29 02:48:29;;;;;;;14.07;9.27;;;;;;;;;;5060926;28;20220;-80
2020/12/29 02:50:55;;;;;;;16.83;10.40;;;;;;;;;;5043628;28;20181;-80
2020/12/29 02:53:21;;;;;;;16.13;9.52;;;;;;;;;;5056466;28;20520;-81
2020/12/29 02:55:47;;;;;;;12.18;8.35;;;;;;;;;;5056004;28;20181;-81
2020/12/29 02:58:13;;;;;;;13.80;7.70;;;;;;;;;;5056075;28;20219;-80
2020/12/29 03:00:39;;;;;;;12.20;7.57;;;;;;;;;;5060762;28;20447;-80
2020/12/29 03:03:05;;;;;;;12.68;9.50;;;;;;;;;;5061736;28;20223;-81
2020/12/29 03:05:31;;;;;;;15.48;8.38;;;;;;;;;;5044040;28;20610;-80
2020/12/29 03:07:57;;;;;;;14.43;8.60;;;;;;;;;;5062150;28;20188;-81
2020/12/29 03:10:23;;;;;;;14.27;7.63;;;;;;;;;;5065852;28;20455;-80
2020/12/29 03:12:49;;;;;;;13.73;8.95;;;;;;;;;;5064265;28;20205;-80
2020/12/29 03:15:15;;;;;;;19.23;9.10;;;;;;;;;;5048092;28;20196;-80
2020/12/29 03:17:41;;;;;;;14.90;9.13;;;;;;;;;;5081595;28;20457;-80
2020/12/29 03:20:07;;;;;;;12.07;8.18;;;;;;;;;;5066331;28;20503;-80
2020/12/29 03:22:33;;;;;;;12.23;8.18;;;;;;;;;;5043318;28;20205;-81
2020/12/29 03:25:00;;;;;;;13.60;8.77;;;;;;;;;;5064095;28;20608;-80
2020/12/29 03:27:26;;;;;;;13.60;8.57;;;;;;;;;;5065233;28;20190;-81
2020/12/29 03:29:51;;;;;;;14.47;8.83;;;;;;;;;;5066197;28;20540;-81
2020/12/29 03:32:17;;;;;;;15.48;8.02;;;;;;;;;;5066123;28;20458;-80
2020/12/29 03:34:43;;;;;;;12.32;8.07;;;;;;;;;;5043225;28;20207;-81
2020/12/29 03:37:10;;;;;;;11.30;8.00;;;;;;;;;;5065479;28;20192;-80
2020/12/29 03:39:37;;;;;;;11.27;7.63;;;;;;;;;;5044947;28;20196;-80
2020/12/29 03:42:04;;;;;;;14.15;8.30;;;;;;;;;;5062176;28;20258;-80
2020/12/29 03:44:30;;;;;;;12.93;8.93;;;;;;;;;;5047551;28;20245;-81
2020/12/29 03:46:56;;;;;;;12.27;7.88;;;;;;;;;;5081447;28;20181;-81
2020/12/29 03:49:22;;;;;;;17.52;8.07;;;;;;;;;;5043048;28;20181;-81
2020/12/29 03:51:49;;;;;;;14.48;8.82;;;;;;;;;;5063562;28;20185;-81
2020/12/29 03:54:15;;;;;;;13.60;9.90;;;;;;;;;;5065142;28;20220;-82
2020/12/29 03:56:40;;;;;;;14.63;9.38;;;;;;;;;;5046404;28;20224;-81
2020/12/29 03:59:06;;;;;;;12.63;9.05;;;;;;;;;;5065553;28;20181;-81
2020/12/29 04:01:32;;;;;;;16.10;9.33;;;;;;;;;;5066168;28;20162;-81
2020/12/29 04:03:58;;;;;;;14.25;8.40;;;;;;;;;;5043880;28;20504;-81
2020/12/29 04:06:24;;;;;;;16.77;9.77;;;;;;;;;;5063954;28;20177;-82
2020/12/29 04:08:50;;;;;;;15.77;10.43;;;;;;;;;;5044353;28;20444;-83
2020/12/29 04:11:16;;;;;;;13.18;8.05;;;;;;;;;;5079849;28;20893;-82
2020/12/29 04:13:43;;;;;;;12.95;9.25;;;;;;;;;;5046917;28;20483;-81
2020/12/29 04:16:10;;;;;;;15.68;9.52;;;;;;;;;;5063370;28;20181;-82
2020/12/29 04:18:36;;;;;;;15.52;10.00;;;;;;;;;;5064576;28;20719;-82
2020/12/29 04:21:02;;;;;;;14.65;9.00;;;;;;;;;;5061538;28;20185;-83
2020/12/29 04:23:28;;;;;;;12.50;8.90;;;;;;;;;;5047587;28;20181;-82
2020/12/29 04:25:55;;;;;;;12.60;8.85;;;;;;;;;;5040453;28;20252;-82
2020/12/29 04:28:21;;;;;;;13.55;8.88;;;;;;;;;;5080853;28;20174;-82
2020/12/29 04:30:47;;;;;;;13.48;9.27;;;;;;;;;;5064877;28;20193;-82
2020/12/29 04:33:13;;;;;;;14.13;9.10;;;;;;;;;;5062476;28;20264;-82
2020/12/29 04:35:39;;;;;;;12.77;8.55;;;;;;;;;;5046410;28;21025;-81
2020/12/29 04:38:05;;;;;;;13.18;9.65;;;;;;;;;;5065349;28;20181;-81
2020/12/29 04:40:31;;;;;;;14.45;7.97;;;;;;;;;;5081098;28;20180;-81
2020/12/29 04:42:58;;;;;;;13.15;8.20;;;;;;;;;;5064454;28;20216;-82
2020/12/29 04:45:24;;;;;;;12.93;8.43;;;;;;;;;;5063210;28;20249;-80
2020/12/29 04:47:51;;;;;;;8.10;6.97;;;;;;;;;;5064362;28;20220;-81
2020/12/29 04:50:18;;;;;;;9.30;6.82;;;;;;;;;;5064472;28;20196;-81
2020/12/29 04:52:45;;;;;;;11.13;6.93;;;;;;;;;;5075542;28;20169;-81
2020/12/29 04:55:11;;;;;;;9.85;6.75;;;;;;;;;;5062435;28;20188;-81
2020/12/29 04:57:37;;;;;;;9.02;6.55;;;;;;;;;;5064320;28;20181;-81
2020/12/29 05:00:07;;;;;;;8.43;6.60;;;;;;;;;;5060860;28;20178;-80
2020/12/29 05:02:33;;;;;;;10.52;6.78;;;;;;;;;;5045658;28;20669;-80
2020/12/29 05:04:59;;;;;;;10.27;5.85;;;;;;;;;;5064145;28;20173;-80
2020/12/29 05:07:28;;;;;;;10.68;6.43;;;;;;;;;;5081011;28;20184;-81
2020/12/29 05:09:55;;;;;;;10.60;5.60;;;;;;;;;;5063687;28;20732;-81
2020/12/29 05:12:21;;;;;;;7.15;4.45;;;;;;;;;;5045312;28;20331;-80
2020/12/29 05:14:48;;;;;;;7.63;5.00;;;;;;;;;;5045954;28;20693;-80
2020/12/29 05:17:14;;;;;;;5.50;4.80;;;;;;;;;;5079092;28;20252;-80
2020/12/29 05:19:41;;;;;;;9.82;5.28;;;;;;;;;;5074997;28;20603;-81
2020/12/29 05:22:08;;;;;;;7.68;4.20;;;;;;;;;;5064289;28;20200;-80
2020/12/29 05:24:34;;;;;;;8.40;5.60;;;;;;;;;;5058198;28;20181;-80
2020/12/29 05:27:01;;;;;;;9.88;4.55;;;;;;;;;;5077897;28;20200;-80
2020/12/29 05:29:28;;;;;;;7.10;4.50;;;;;;;;;;5045308;28;20246;-80
2020/12/29 05:31:54;;;;;;;4.95;3.35;;;;;;;;;;5079177;28;20174;-79
2020/12/29 05:34:21;;;;;;;5.45;4.10;;;;;;;;;;5063670;28;20224;-80
2020/12/29 05:36:48;;;;;;;7.72;4.28;;;;;;;;;;5063560;28;20677;-80
2020/12/29 05:39:14;;;;;;;5.82;4.45;;;;;;;;;;5061598;28;20249;-80
2020/12/29 05:41:42;;;;;;;26.83;14.57;;;;;;;;;;5045398;28;20188;-80
2020/12/29 05:44:08;;;;;;;50.70;43.22;;;;;;;;;;5079023;28;20173;-80
2020/12/29 05:46:35;;;;;;;130.80;75.60;;;;;;;;;;5040911;28;20211;-80
2020/12/29 05:49:01;;;;;;;88.85;66.35;;;;;;;;;;5061792;28;20192;-80
2020/12/29 05:51:27;;;;;;;26.73;24.48;;;;;;;;;;5061380;28;20200;-80
2020/12/29 05:54:04;;;;;;;10.15;7.20;;;;;;;;;;5063004;28;20205;-80
2020/12/29 05:56:31;;;;;;;85.55;55.00;;;;;;;;;;5057084;28;20585;-80
2020/12/29 05:58:57;;;;;;;122.68;93.22;;;;;;;;;;5073780;28;20778;-80
2020/12/29 06:01:34;;;;;;;153.07;82.13;;;;;;;;;;5063230;28;20200;-80
2020/12/29 06:04:02;;;;;;;265.42;129.05;;;;;;;;;;5062667;28;20187;-80
2020/12/29 06:06:28;;;;;;;93.25;52.17;;;;;;;;;;5061703;28;20196;-80
2020/12/29 06:08:55;;;;;;;282.80;137.52;;;;;;;;;;5044862;28;20284;-80
2020/12/29 06:11:23;;;;;;;321.55;158.70;;;;;;;;;;5056726;28;20189;-80
2020/12/29 06:13:49;;;;;;;199.70;111.00;;;;;;;;;;5074853;28;20577;-80
2020/12/29 06:16:18;;;;;;;369.67;217.43;;;;;;;;;;5060900;28;20600;-80
2020/12/29 06:18:47;;;;;;;228.63;131.75;;;;;;;;;;5062852;28;20193;-80
2020/12/29 06:21:14;;;;;;;559.33;361.55;;;;;;;;;;5060593;28;20205;-80
2020/12/29 06:23:46;;;;;;;431.30;263.92;;;;;;;;;;5061450;28;20181;-80
2020/12/29 06:26:15;;;;;;;74.38;61.00;;;;;;;;;;5041749;28;20216;-80
2020/12/29 06:28:46;;;;;;;28.73;25.42;;;;;;;;;;5041532;28;20635;-80
2020/12/29 06:31:19;;;;;;;27.80;22.30;;;;;;;;;;5061326;28;20468;-80
2020/12/29 06:33:46;;;;;;;50.30;38.63;;;;;;;;;;5067768;28;20208;-80
2020/12/29 06:36:14;;;;;;;227.82;183.93;;;;;;;;;;5058173;28;20196;-80
2020/12/29 06:38:40;;;;;;;300.38;272.88;;;;;;;;;;5075220;28;20185;-80
2020/12/29 06:41:08;;;;;;;66.93;60.22;;;;;;;;;;5068897;28;20209;-80
2020/12/29 06:43:34;;;;;;;14.13;13.02;;;;;;;;;;5059003;28;20185;-79
2020/12/29 06:46:10;;;;;;;23.67;21.73;;;;;;;;;;5075971;28;20323;-80
2020/12/29 06:48:36;;;;;;;86.47;79.60;;;;;;;;;;5061976;28;20249;-80
2020/12/29 06:51:09;;;;;;;128.67;116.70;;;;;;;;;;5062130;28;20215;-80
2020/12/29 06:53:36;;;;;;;138.88;126.63;;;;;;;;;;5050012;28;20466;-80
2020/12/29 06:56:02;;;;;;;33.13;30.08;;;;;;;;;;5078152;28;20240;-79
2020/12/29 06:58:32;;;;;;;12.90;11.80;;;;;;;;;;5071747;28;20207;-79
2020/12/29 07:01:17;;;;;;;17.25;15.55;;;;;;;;;;5061103;28;20692;-79
2020/12/29 07:03:43;;;;;;;6.43;5.80;;;;;;;;;;5061712;28;20184;-79
2020/12/29 07:06:09;;;;;;;9.15;8.35;;;;;;;;;;5059071;28;20268;-80
2020/12/29 07:08:38;;;;;;;9.60;7.93;;;;;;;;;;5062017;28;20580;-80
2020/12/29 07:11:17;;;;;;;10.50;8.18;;;;;;;;;;5077618;28;21002;-80
2020/12/29 07:13:50;;;;;;;8.07;7.28;;;;;;;;;;5072098;28;20576;-80
2020/12/29 07:16:21;;;;;;;11.18;9.57;;;;;;;;;;5059411;28;20200;-79
2020/12/29 07:18:47;;;;;;;12.57;11.27;;;;;;;;;;5068256;28;20190;-79
2020/12/29 07:21:26;;;;;;;13.98;10.90;;;;;;;;;;5061230;28;20251;-79
2020/12/29 07:23:53;;;;;;;11.32;9.10;;;;;;;;;;5077152;28;20181;-81
2020/12/29 07:26:19;;;;;;;12.10;8.65;;;;;;;;;;5074551;28;20188;-81
2020/12/29 07:28:45;;;;;;;8.38;7.30;;;;;;;;;;5043633;28;20185;-80
2020/12/29 07:31:15;;;;;;;9.55;7.50;;;;;;;;;;5043033;28;20197;-80
2020/12/29 07:33:48;;;;;;;9.75;7.70;;;;;;;;;;5064270;28;20577;-81
2020/12/29 07:36:17;;;;;;;11.18;9.35;;;;;;;;;;5057346;28;20642;-81
2020/12/29 07:38:46;;;;;;;9.57;7.55;;;;;;;;;;5066092;28;20344;-81
2020/12/29 07:41:12;;;;;;;10.90;5.80;;;;;;;;;;5055422;28;20177;-81
2020/12/29 07:43:39;;;;;;;8.38;5.13;;;;;;;;;;5038811;28;20204;-81
2020/12/29 07:46:05;;;;;;;6.18;5.13;;;;;;;;;;5055486;28;20177;-81
2020/12/29 07:48:31;;;;;;;9.07;5.50;;;;;;;;;;5041070;28;20311;-80
2020/12/29 07:51:00;;;;;;;11.40;6.75;;;;;;;;;;5060794;28;20193;-80
2020/12/29 07:53:26;;;;;;;7.38;5.57;;;;;;;;;;5042936;28;20209;-79
2020/12/29 07:55:52;;;;;;;7.90;5.22;;;;;;;;;;5045673;28;20713;-79
2020/12/29 07:58:18;;;;;;;10.43;6.22;;;;;;;;;;5059414;28;20185;-80
2020/12/29 08:00:44;;;;;;;8.40;5.25;;;;;;;;;;5058837;28;20189;-80
2020/12/29 08:03:11;;;;;;;7.68;5.22;;;;;;;;;;5062634;28;20198;-81
2020/12/29 08:05:38;;;;;;;8.32;4.80;;;;;;;;;;5064487;28;20249;-81
2020/12/29 08:08:05;;;;;;;7.10;5.07;;;;;;;;;;5075170;28;20642;-80
2020/12/29 08:10:32;;;;;;;9.30;5.63;;;;;;;;;;5042227;28;20213;-81
2020/12/29 08:12:59;;;;;;;9.05;5.60;;;;;;;;;;5068522;28;20308;-81
2020/12/29 08:15:26;;;;;;;31.83;28.95;;;;;;;;;;5060687;28;20189;-80
2020/12/29 08:18:04;;;;;;;27.50;24.88;;;;;;;;;;5078454;28;20177;-81
2020/12/29 08:20:31;;;;;;;28.00;25.25;;;;;;;;;;5071371;28;20173;-81
2020/12/29 08:22:58;;;;;;;18.35;15.38;;;;;;;;;;5075263;28;20658;-81
2020/12/29 08:25:25;;;;;;;25.95;23.25;;;;;;;;;;5058500;28;20240;-81
2020/12/29 08:27:51;;;;;;;28.33;25.38;;;;;;;;;;5062457;28;20192;-80
2020/12/29 08:30:18;;;;;;;29.67;24.75;;;;;;;;;;5054775;28;20220;-81
2020/12/29 08:32:45;;;;;;;12.70;7.10;;;;;;;;;;5064356;28;20212;-80
2020/12/29 08:35:12;;;;;;;12.07;7.78;;;;;;;;;;5080255;28;20184;-81
2020/12/29 08:37:49;;;;;;;12.35;11.05;;;;;;;;;;5060402;28;20174;-81
2020/12/29 08:40:16;;;;;;;12.02;10.55;;;;;;;;;;5063741;28;20185;-81
2020/12/29 08:42:43;;;;;;;15.93;13.68;;;;;;;;;;5060660;28;20208;-81
2020/12/29 08:45:10;;;;;;;11.23;5.05;;;;;;;;;;5060632;28;20185;-80
2020/12/29 08:47:36;;;;;;;9.65;4.80;;;;;;;;;;5059659;28;20436;-81
2020/12/29 08:50:21;;;;;;;5.30;4.20;;;;;;;;;;5059231;28;20219;-80
2020/12/29 08:52:52;;;;;;;7.78;4.90;;;;;;;;;;5075125;28;20208;-80
2020/12/29 08:55:28;;;;;;;8.20;4.10;;;;;;;;;;5062422;28;20181;-80
2020/12/29 08:57:57;;;;;;;8.75;4.47;;;;;;;;;;5058890;28;20211;-80
2020/12/29 09:00:24;;;;;;;10.73;5.40;;;;;;;;;;5043371;28;20212;-80
2020/12/29 09:02:50;;;;;;;9.52;4.47;;;;;;;;;;5079590;28;20181;-80
2020/12/29 09:05:29;;;;;;;13.10;4.60;;;;;;;;;;5059104;28;20201;-81
2020/12/29 09:07:55;;;;;;;6.30;4.28;;;;;;;;;;5042245;28;20177;-81
2020/12/29 09:10:22;;;;;;;8.43;4.32;;;;;;;;;;5065408;28;20660;-82
2020/12/29 09:12:48;;;;;;;6.22;5.00;;;;;;;;;;5053623;28;20209;-81
2020/12/29 09:15:25;;;;;;;35.50;31.90;;;;;;;;;;5044277;28;20241;-81
2020/12/29 09:17:56;;;;;;;14.60;8.68;;;;;;;;;;5056032;28;20273;-81
2020/12/29 09:20:25;;;;;;;11.88;5.60;;;;;;;;;;5039672;28;20182;-81
2020/12/29 09:22:51;;;;;;;13.00;5.05;;;;;;;;;;5041806;28;20177;-82
2020/12/29 09:25:36;;;;;;;10.65;5.70;;;;;;;;;;5044141;28;20245;-82
2020/12/29 09:28:09;;;;;;;12.57;5.53;;;;;;;;;;5039557;28;20203;-82
2020/12/29 09:30:35;;;;;;;5.78;4.88;;;;;;;;;;5043526;28;20211;-82
2020/12/29 09:33:01;;;;;;;245.05;217.82;;;;;;;;;;5043644;28;20261;-83
2020/12/29 09:35:27;;;;;;;15.45;9.38;;;;;;;;;;5042267;28;20186;-83
2020/12/29 09:37:55;;;;;;;26.48;17.73;;;;;;;;;;5075582;28;20170;-83
2020/12/29 09:40:21;;;;;;;13.02;8.77;;;;;;;;;;5076408;28;20173;-81
2020/12/29 09:42:47;;;;;;;9.50;6.03;;;;;;;;;;5056803;28;20213;-81
2020/12/29 09:45:17;;;;;;;11.15;6.13;;;;;;;;;;5034202;28;20246;-82
2020/12/29 09:47:43;;;;;;;17.55;6.47;;;;;;;;;;5055135;28;20273;-82
2020/12/29 09:50:09;;;;;;;9.10;6.35;;;;;;;;;;5041237;28;20200;-82
2020/12/29 09:52:35;;;;;;;7.88;4.93;;;;;;;;;;5041255;28;20169;-82
2020/12/29 09:55:02;;;;;;;14.10;5.17;;;;;;;;;;5040025;28;20289;-81
2020/12/29 09:57:29;;;;;;;8.93;6.18;;;;;;;;;;5057185;28;20523;-81
2020/12/29 09:59:54;;;;;;;21.83;19.58;;;;;;;;;;5041714;28;20940;-81
2020/12/29 10:02:21;;;;;;;13.57;7.22;;;;;;;;;;5043265;28;20250;-82
2020/12/29 10:04:47;;;;;;;9.82;5.95;;;;;;;;;;5041475;28;20651;-81
2020/12/29 10:07:13;;;;;;;6.23;4.90;;;;;;;;;;5057295;28;20192;-81
2020/12/29 10:09:39;;;;;;;12.18;5.05;;;;;;;;;;5074074;28;20483;-81
2020/12/29 10:12:05;;;;;;;10.35;5.60;;;;;;;;;;5055995;28;20272;-81
2020/12/29 10:14:31;;;;;;;10.75;5.85;;;;;;;;;;5041580;28;20272;-81
2020/12/29 10:16:57;;;;;;;10.93;5.53;;;;;;;;;;5038928;28;20265;-80
2020/12/29 10:19:23;;;;;;;7.63;5.05;;;;;;;;;;5075368;28;20209;-81
2020/12/29 10:21:52;;;;;;;8.43;5.43;;;;;;;;;;5042478;28;20174;-81
2020/12/29 10:24:18;;;;;;;11.10;5.30;;;;;;;;;;5057830;28;20241;-81
2020/12/29 10:26:44;;;;;;;13.60;5.32;;;;;;;;;;5041957;28;20197;-82
2020/12/29 10:29:10;;;;;;;5.60;5.00;;;;;;;;;;5074437;28;20185;-82
2020/12/29 10:31:36;;;;;;;9.63;4.53;;;;;;;;;;5038002;28;20526;-81
2020/12/29 10:34:02;;;;;;;9.48;4.70;;;;;;;;;;5038898;28;20202;-80
2020/12/29 10:36:35;;;;;;;6.45;5.25;;;;;;;;;;5042686;28;20538;-82
2020/12/29 10:39:02;;;;;;;10.50;6.28;;;;;;;;;;5042036;28;20212;-82
2020/12/29 10:41:29;;;;;;;11.88;6.55;;;;;;;;;;5042648;28;20255;-82
2020/12/29 10:43:55;;;;;;;8.88;5.35;;;;;;;;;;5076566;28;20180;-86
2020/12/29 10:46:21;;;;;;;6.03;5.07;;;;;;;;;;5075482;28;20185;-87
2020/12/29 10:48:47;;;;;;;7.43;4.40;;;;;;;;;;5074571;28;20200;-87
2020/12/29 10:51:20;;;;;;;7.55;4.13;;;;;;;;;;5056622;28;20209;-86
2020/12/29 10:53:46;;;;;;;6.50;4.50;;;;;;;;;;5042886;28;20210;-83
2020/12/29 10:56:12;;;;;;;8.98;5.53;;;;;;;;;;5042817;28;20530;-86
2020/12/29 10:58:39;;;;;;;13.23;8.40;;;;;;;;;;5039397;28;20212;-87
2020/12/29 11:01:05;;;;;;;12.88;9.90;;;;;;;;;;5057693;28;20180;-87
2020/12/29 11:03:31;;;;;;;7.40;5.28;;;;;;;;;;5054618;28;20190;-85
2020/12/29 11:05:57;;;;;;;11.70;4.20;;;;;;;;;;5040428;28;20185;-86
2020/12/29 11:08:26;;;;;;;5.85;5.05;;;;;;;;;;5041167;28;20440;-87
2020/12/29 11:10:52;;;;;;;4.80;4.28;;;;;;;;;;5064789;28;20232;-86
2020/12/29 11:13:18;;;;;;;7.93;4.82;;;;;;;;;;5034617;28;20198;-88
2020/12/29 11:15:44;;;;;;;5.40;4.38;;;;;;;;;;5038612;28;20192;-86
2020/12/29 11:18:10;;;;;;;78.28;36.17;;;;;;;;;;5056265;28;20189;-86
2020/12/29 11:20:36;;;;;;;18.92;12.90;;;;;;;;;;5039766;28;20186;-87
2020/12/29 11:23:02;;;;;;;27.23;22.15;;;;;;;;;;5057797;28;20180;-87
2020/12/29 11:25:28;;;;;;;13.55;7.22;;;;;;;;;;5074767;28;20189;-85
2020/12/29 11:27:54;;;;;;;5.38;4.88;;;;;;;;;;5038935;28;20186;-86
2020/12/29 11:30:20;;;;;;;266.23;106.03;;;;;;;;;;5042978;28;20201;-86
2020/12/29 11:32:46;;;;;;;272.58;172.13;;;;;;;;;;5040680;28;20209;-86
2020/12/29 11:35:12;;;;;;;9.35;6.50;;;;;;;;;;5075819;28;20241;-85
2020/12/29 11:37:38;;;;;;;6.67;3.70;;;;;;;;;;5073291;28;20216;-86
2020/12/29 11:40:04;;;;;;;4.13;3.27;;;;;;;;;;5061114;28;20424;-86
2020/12/29 11:42:30;;;;;;;4.25;3.38;;;;;;;;;;5044290;28;20448;-86
2020/12/29 11:44:56;;;;;;;5.47;3.63;;;;;;;;;;5059075;28;20201;-87
2020/12/29 11:47:22;;;;;;;8.10;4.57;;;;;;;;;;5043408;28;20178;-86
2020/12/29 11:49:48;;;;;;;8.55;3.42;;;;;;;;;;5040728;28;20855;-85
2020/12/29 11:52:14;;;;;;;5.63;3.70;;;;;;;;;;5077023;28;20204;-86
2020/12/29 11:54:40;;;;;;;4.30;2.90;;;;;;;;;;5077395;28;20555;-84
2020/12/29 11:57:06;;;;;;;4.05;3.50;;;;;;;;;;5056849;28;20460;-85
2020/12/29 11:59:32;;;;;;;6.35;4.20;;;;;;;;;;5073157;28;20186;-86
2020/12/29 12:01:58;;;;;;;4.87;3.30;;;;;;;;;;5045870;28;20174;-85
2020/12/29 12:04:24;;;;;;;7.60;2.80;;;;;;;;;;5072920;28;20852;-86
2020/12/29 12:06:50;;;;;;;4.27;2.70;;;;;;;;;;5060922;28;20444;-86
2020/12/29 12:09:16;;;;;;;3.40;2.63;;;;;;;;;;5062187;28;20507;-85
2020/12/29 12:11:42;;;;;;;6.78;3.13;;;;;;;;;;5065562;28;20189;-86
2020/12/29 12:14:08;;;;;;;3.47;3.17;;;;;;;;;;5081072;28;20269;-85
2020/12/29 12:16:37;;;;;;;6.25;5.03;;;;;;;;;;5079674;28;20173;-85
2020/12/29 12:19:03;;;;;;;8.43;4.32;;;;;;;;;;5062831;28;20185;-85
2020/12/29 12:21:30;;;;;;;6.45;5.28;;;;;;;;;;5063873;28;20177;-85
2020/12/29 12:23:57;;;;;;;8.55;5.72;;;;;;;;;;5046286;28;20234;-84
2020/12/29 12:26:23;;;;;;;6.18;4.00;;;;;;;;;;5057886;28;20189;-84
2020/12/29 12:28:49;;;;;;;22.05;15.60;;;;;;;;;;5057454;28;20185;-85
2020/12/29 12:31:15;;;;;;;15.57;13.98;;;;;;;;;;5077769;28;20220;-86
2020/12/29 12:33:41;;;;;;;118.10;77.80;;;;;;;;;;5058012;28;20202;-87
2020/12/29 12:36:07;;;;;;;44.05;39.85;;;;;;;;;;5064675;28;20189;-86
2020/12/29 12:38:34;;;;;;;11.70;10.50;;;;;;;;;;5064325;28;20185;-85
2020/12/29 12:41:00;;;;;;;59.40;46.78;;;;;;;;;;5075971;28;20304;-84
2020/12/29 12:43:26;;;;;;;82.55;68.65;;;;;;;;;;5080868;28;20223;-87
2020/12/29 12:45:52;;;;;;;7.23;4.17;;;;;;;;;;5064008;28;20185;-86
2020/12/29 12:48:18;;;;;;;12.48;9.93;;;;;;;;;;5064676;28;20451;-85
2020/12/29 12:50:44;;;;;;;19.48;15.50;;;;;;;;;;5046918;28;20189;-86
2020/12/29 12:53:10;;;;;;;10.85;6.68;;;;;;;;;;5080196;28;20212;-84
2020/12/29 12:55:36;;;;;;;4.10;3.25;;;;;;;;;;5042095;28;20180;-84
2020/12/29 12:58:03;;;;;;;9.30;8.27;;;;;;;;;;5063146;28;20185;-85
2020/12/29 13:00:32;;;;;;;13.02;7.40;;;;;;;;;;5062330;28;20184;-85
2020/12/29 13:02:58;;;;;;;28.75;18.52;;;;;;;;;;5046564;28;20173;-85
2020/12/29 13:05:24;;;;;;;19.20;14.27;;;;;;;;;;5043952;28;20244;-83
2020/12/29 13:07:50;;;;;;;40.50;27.48;;;;;;;;;;5064294;28;20261;-85
2020/12/29 13:10:17;;;;;;;7.45;6.10;;;;;;;;;;5066495;28;20218;-86
2020/12/29 13:12:43;;;;;;;10.35;6.55;;;;;;;;;;5062276;28;20174;-86
2020/12/29 13:15:10;;;;;;;42.00;28.25;;;;;;;;;;5056644;28;20196;-86
2020/12/29 13:17:36;;;;;;;13.13;7.93;;;;;;;;;;5072087;28;20188;-86
2020/12/29 13:20:03;;;;;;;41.78;28.92;;;;;;;;;;5047662;28;20181;-85
2020/12/29 13:22:29;;;;;;;11.45;6.68;;;;;;;;;;5078216;28;20196;-85
2020/12/29 13:24:55;;;;;;;21.05;13.38;;;;;;;;;;5060513;28;20195;-88
2020/12/29 13:27:21;;;;;;;14.73;10.73;;;;;;;;;;5079339;28;20220;-87
2020/12/29 13:29:47;;;;;;;6.75;4.65;;;;;;;;;;5045995;28;20443;-88
2020/12/29 13:32:13;;;;;;;17.05;12.13;;;;;;;;;;5074144;28;20178;-86
2020/12/29 13:34:39;;;;;;;20.20;15.13;;;;;;;;;;5075399;28;20204;-88
2020/12/29 13:37:09;;;;;;;17.08;13.43;;;;;;;;;;5062831;28;20438;-88
2020/12/29 13:39:35;;;;;;;9.00;6.30;;;;;;;;;;5063279;28;20271;-88
2020/12/29 13:42:01;;;;;;;23.10;17.23;;;;;;;;;;5061255;28;20189;-87
2020/12/29 13:44:28;;;;;;;7.78;5.65;;;;;;;;;;5063113;28;20189;-84
2020/12/29 13:46:54;;;;;;;6.57;4.80;;;;;;;;;;5045407;28;20177;-88
2020/12/29 13:49:19;;;;;;;22.67;14.57;;;;;;;;;;5061855;28;20276;-90
2020/12/29 13:51:45;;;;;;;11.83;8.27;;;;;;;;;;5071517;28;20192;-89
2020/12/29 13:54:11;;;;;;;8.83;5.43;;;;;;;;;;5062543;28;20473;-89
2020/12/29 13:56:37;;;;;;;8.32;6.53;;;;;;;;;;5044013;28;20567;-87
2020/12/29 13:59:04;;;;;;;20.00;11.97;;;;;;;;;;5075356;28;20181;-88
2020/12/29 14:01:30;;;;;;;6.35;4.43;;;;;;;;;;5064608;28;20889;-88
2020/12/29 14:03:56;;;;;;;7.82;5.80;;;;;;;;;;5061744;28;20276;-87
2020/12/29 14:06:22;;;;;;;8.95;7.82;;;;;;;;;;5070994;28;20212;-89
2020/12/29 14:08:48;;;;;;;7.90;6.90;;;;;;;;;;5063112;28;20231;-89
2020/12/29 14:11:15;;;;;;;7.30;5.10;;;;;;;;;;5062201;28;20312;-89
2020/12/29 14:13:42;;;;;;;14.20;10.57;;;;;;;;;;5060185;28;20498;-87
2020/12/29 14:16:08;;;;;;;8.15;7.05;;;;;;;;;;5070442;28;20189;-88
2020/12/29 14:18:34;;;;;;;16.27;8.13;;;;;;;;;;5059912;28;20192;-88
2020/12/29 14:21:00;;;;;;;5.13;3.20;;;;;;;;;;5062642;28;20489;-86
2020/12/29 14:23:26;;;;;;;9.90;8.90;;;;;;;;;;5055892;28;20442;-88
2020/12/29 14:25:52;;;;;;;5.57;4.97;;;;;;;;;;5057239;28;20427;-87